Time;durP1;ratioP1;P1;durP2;ratioP2;P2;SDS_P1;SDS_P2;PMS_P1;PMS_P2;Temp;Humidity;BMP_temperature;BMP_pressure;BME280_temperature;BME280_humidity;BME280_pressure;Samples;Min_cycle;Max_cycle;Signal;HPM_P1;HPM_P2
2023/01/15 00:02:04;;;;;;;2.60;2.40;;;18.50;71.90;;;;;;5075888;28;20504;-13
2023/01/15 00:04:30;;;;;;;3.17;2.88;;;18.50;71.90;;;;;;5074619;28;20048;-14
2023/01/15 00:06:55;;;;;;;3.25;3.05;;;18.50;71.90;;;;;;5072758;28;20049;-14
2023/01/15 00:09:21;;;;;;;2.83;2.50;;;18.50;72.00;;;;;;5074639;28;20584;-14
2023/01/15 00:11:47;;;;;;;2.42;2.25;;;18.40;71.90;;;;;;5079473;28;20032;-15
2023/01/15 00:14:12;;;;;;;2.20;2.10;;;18.40;71.80;;;;;;5070944;28;20040;-14
2023/01/15 00:16:39;;;;;;;2.60;2.40;;;18.50;71.70;;;;;;5070574;28;20036;-15
2023/01/15 00:19:07;;;;;;;2.58;2.38;;;18.50;72.50;;;;;;5069445;28;20044;-13
2023/01/15 00:21:32;;;;;;;2.53;2.33;;;18.50;71.70;;;;;;5075098;28;20043;-13
2023/01/15 00:29:26;;;;;;;2.25;2.08;;;18.50;71.60;;;;;;5076305;28;20051;-15
2023/01/15 00:32:02;;;;;;;2.13;2.03;;;18.50;71.50;;;;;;5073280;28;20024;-14
2023/01/15 00:34:29;;;;;;;2.00;1.90;;;18.40;71.50;;;;;;5071655;28;20051;-13
2023/01/15 00:36:55;;;;;;;2.40;2.20;;;18.40;71.60;;;;;;5074786;28;20086;-14
2023/01/15 00:39:22;;;;;;;2.10;2.00;;;18.40;71.90;;;;;;5069405;28;20044;-15
2023/01/15 00:41:48;;;;;;;2.08;1.98;;;18.40;71.80;;;;;;5078002;28;20519;-14
2023/01/15 00:44:14;;;;;;;2.00;1.90;;;18.40;71.60;;;;;;5070635;28;20028;-14
2023/01/15 00:46:39;;;;;;;2.17;2.08;;;18.40;71.70;;;;;;5075150;28;20474;-15
2023/01/15 00:49:05;;;;;;;2.30;2.10;;;18.30;71.70;;;;;;5069515;28;20052;-15
2023/01/15 00:51:31;;;;;;;2.00;1.80;;;18.50;71.40;;;;;;5073913;28;20394;-15
2023/01/15 00:53:56;;;;;;;1.90;1.80;;;18.40;71.20;;;;;;5076521;28;20058;-14
2023/01/15 00:56:22;;;;;;;2.05;1.95;;;18.40;71.60;;;;;;5077405;28;20048;-13
2023/01/15 00:58:47;;;;;;;1.90;1.80;;;18.40;71.60;;;;;;5075543;28;20047;-15
2023/01/15 01:01:13;;;;;;;1.55;1.45;;;18.40;71.50;;;;;;5077777;28;20032;-16
2023/01/15 01:03:39;;;;;;;1.75;1.65;;;18.40;71.40;;;;;;5074971;28;20497;-15
2023/01/15 01:06:05;;;;;;;2.08;1.88;;;18.40;71.30;;;;;;5066726;28;20734;-15
2023/01/15 01:08:30;;;;;;;1.70;1.60;;;18.40;71.50;;;;;;5075514;28;20130;-15
2023/01/15 01:11:07;;;;;;;1.90;1.80;;;18.40;71.60;;;;;;5072298;28;20051;-21
2023/01/15 01:13:33;;;;;;;1.77;1.67;;;18.40;71.50;;;;;;5071869;28;20563;-16
2023/01/15 01:15:59;;;;;;;1.85;1.75;;;18.40;71.50;;;;;;5073840;28;20597;-13
2023/01/15 01:18:24;;;;;;;1.65;1.38;;;18.30;71.40;;;;;;5073370;28;20129;-14
2023/01/15 01:20:50;;;;;;;1.55;1.45;;;18.40;71.50;;;;;;5079149;28;20460;-15
2023/01/15 01:23:16;;;;;;;1.40;1.30;;;18.30;71.50;;;;;;5071381;28;20076;-14
2023/01/15 01:25:41;;;;;;;1.70;1.60;;;18.40;71.50;;;;;;5047111;28;20674;-15
2023/01/15 01:28:07;;;;;;;1.50;1.40;;;18.30;71.50;;;;;;5077551;28;20052;-15
2023/01/15 01:30:32;;;;;;;2.35;1.80;;;18.30;71.40;;;;;;5077815;28;20090;-15
2023/01/15 01:32:58;;;;;;;1.77;1.67;;;18.30;71.40;;;;;;5076865;28;20040;-14
2023/01/15 01:35:23;;;;;;;1.42;1.33;;;18.30;71.60;;;;;;5068442;28;20052;-13
2023/01/15 01:37:50;;;;;;;1.60;1.48;;;18.30;71.40;;;;;;5073586;28;20052;-14
2023/01/15 01:40:16;;;;;;;2.35;1.40;;;18.30;71.50;;;;;;5061372;28;20040;-14
2023/01/15 01:42:41;;;;;;;1.60;1.50;;;18.30;71.60;;;;;;5074556;28;20049;-14
2023/01/15 01:45:30;;;;;;;1.25;1.15;;;18.20;71.60;;;;;;5078173;28;20047;-13
2023/01/15 01:48:01;;;;;;;1.42;1.33;;;18.30;71.40;;;;;;5050745;28;20560;-22
2023/01/15 01:50:27;;;;;;;1.30;1.20;;;18.30;71.60;;;;;;5063403;28;20079;-15
2023/01/15 01:52:55;;;;;;;1.30;1.20;;;18.30;71.50;;;;;;5052233;28;20067;-13
2023/01/15 01:55:22;;;;;;;1.63;1.52;;;18.20;71.40;;;;;;5050111;28;20048;-17
2023/01/15 01:57:47;;;;;;;2.00;1.80;;;18.20;71.60;;;;;;5063722;28;20068;-17
2023/01/15 02:00:14;;;;;;;1.52;1.42;;;18.30;71.50;;;;;;5049869;28;20052;-13
2023/01/15 02:02:44;;;;;;;1.63;1.35;;;18.20;72.30;;;;;;5069866;28;20044;-14
2023/01/15 02:05:11;;;;;;;1.27;1.27;;;18.20;71.50;;;;;;5069241;28;20047;-13
2023/01/15 02:07:37;;;;;;;1.50;1.40;;;18.30;71.40;;;;;;5054447;28;20574;-16
2023/01/15 02:10:03;;;;;;;1.52;1.42;;;18.20;71.40;;;;;;5074677;28;20040;-13
2023/01/15 02:12:35;;;;;;;1.35;1.25;;;18.20;71.40;;;;;;5082020;28;20524;-14
2023/01/15 02:15:07;;;;;;;1.35;1.25;;;18.20;71.20;;;;;;5035959;28;20137;-13
2023/01/15 02:17:55;;;;;;;1.30;1.20;;;18.20;71.20;;;;;;5051941;28;20151;-14
2023/01/15 02:20:33;;;;;;;1.38;1.20;;;18.20;71.40;;;;;;5058332;28;20655;-16
2023/01/15 02:23:22;;;;;;;1.63;1.38;;;18.20;71.50;;;;;;5057279;28;20044;-17
2023/01/15 02:26:25;;;;;;;1.30;1.20;;;18.20;71.40;;;;;;5059739;28;20043;-13
2023/01/15 02:28:52;;;;;;;1.27;1.17;;;18.20;71.40;;;;;;4933446;28;20148;-15
2023/01/15 02:31:23;;;;;;;1.17;1.15;;;18.20;71.30;;;;;;4916484;29;20054;-15
2023/01/15 02:33:54;;;;;;;1.50;1.33;;;18.20;71.40;;;;;;4944702;28;20186;-14
2023/01/15 02:36:21;;;;;;;1.45;1.10;;;18.20;71.40;;;;;;4935553;28;20086;-13
2023/01/15 02:38:47;;;;;;;1.20;1.10;;;18.10;71.40;;;;;;4933465;29;20059;-15
2023/01/15 02:41:16;;;;;;;1.00;1.00;;;18.20;71.30;;;;;;4929825;29;20043;-19
2023/01/15 02:43:44;;;;;;;1.27;1.10;;;18.10;71.50;;;;;;4948833;28;20043;-15
2023/01/15 02:46:09;;;;;;;1.42;1.20;;;18.10;71.40;;;;;;4916020;29;20058;-14
2023/01/15 02:48:35;;;;;;;1.10;1.10;;;18.20;71.20;;;;;;4935209;28;20122;-32
2023/01/15 02:51:13;;;;;;;0.85;0.82;;;18.30;71.00;;;;;;4920420;28;20070;-14
2023/01/15 02:53:39;;;;;;;0.88;0.88;;;18.20;71.20;;;;;;4929304;29;20035;-13
2023/01/15 02:56:14;;;;;;;0.80;0.80;;;18.20;71.20;;;;;;4948945;28;20051;-13
2023/01/15 02:58:41;;;;;;;1.10;1.00;;;18.10;71.20;;;;;;4931972;29;20742;-14
2023/01/15 03:01:10;;;;;;;0.80;0.80;;;18.20;71.30;;;;;;4935985;29;20042;-14
2023/01/15 03:03:44;;;;;;;0.90;0.90;;;18.10;71.30;;;;;;4914993;29;20051;-15
2023/01/15 03:06:13;;;;;;;0.90;0.90;;;18.10;71.40;;;;;;5070546;28;20040;-15
2023/01/15 03:08:38;;;;;;;0.90;0.90;;;18.10;71.30;;;;;;5068867;28;20040;-16
2023/01/15 03:11:14;;;;;;;1.00;1.00;;;18.10;71.20;;;;;;5048238;28;20052;-15
2023/01/15 03:14:13;;;;;;;0.68;0.68;;;18.10;71.30;;;;;;5069511;28;20071;-14
2023/01/15 03:16:49;;;;;;;1.00;1.00;;;18.10;71.50;;;;;;5051516;28;20036;-15
2023/01/15 03:19:33;;;;;;;0.70;0.70;;;18.10;71.60;;;;;;5077773;28;20048;-14
2023/01/15 03:22:04;;;;;;;;;;;18.10;71.30;;;;;;5078716;28;20072;-13
2023/01/15 03:24:41;;;;;;;0.73;0.73;;;18.10;71.20;;;;;;5077300;28;19930;-15
2023/01/15 03:27:06;;;;;;;0.80;0.80;;;18.10;71.10;;;;;;5064560;28;20451;-15
2023/01/15 03:29:35;;;;;;;0.80;0.80;;;18.10;71.00;;;;;;5072125;28;20044;-14
2023/01/15 03:32:00;;;;;;;1.00;0.90;;;18.10;71.00;;;;;;5066478;28;20037;-14
2023/01/15 03:34:28;;;;;;;0.77;0.77;;;18.10;71.10;;;;;;5069719;28;20475;-14
2023/01/15 03:36:53;;;;;;;0.90;0.90;;;18.10;71.30;;;;;;5065959;28;20099;-14
2023/01/15 03:39:19;;;;;;;1.02;1.02;;;18.10;71.20;;;;;;5074990;28;20044;-16
2023/01/15 03:42:16;;;;;;;0.80;0.80;;;18.10;71.00;;;;;;5063422;28;20037;-13
2023/01/15 03:44:47;;;;;;;0.68;0.68;;;18.10;71.10;;;;;;5076519;28;20047;-13
2023/01/15 03:47:20;;;;;;;1.02;1.02;;;18.10;71.20;;;;;;5073655;28;20040;-20
2023/01/15 03:50:04;;;;;;;0.88;0.88;;;18.00;71.20;;;;;;5068147;28;20028;-13
2023/01/15 03:52:42;;;;;;;0.80;0.80;;;18.10;71.10;;;;;;5071717;28;22598;-14
2023/01/15 03:55:19;;;;;;;0.80;0.80;;;18.10;71.00;;;;;;5050630;28;20075;-14
2023/01/15 03:57:50;;;;;;;0.68;0.68;;;18.00;71.30;;;;;;5053186;28;20127;-13
2023/01/15 04:00:26;;;;;;;0.73;0.73;;;18.00;71.30;;;;;;5055871;28;20105;-27
2023/01/15 04:02:52;;;;;;;0.73;0.73;;;18.00;71.30;;;;;;5056413;28;20044;-15
2023/01/15 04:05:18;;;;;;;0.70;0.70;;;18.00;71.20;;;;;;5054409;28;20044;-15
2023/01/15 04:07:44;;;;;;;0.70;0.70;;;18.10;71.20;;;;;;5078492;28;20048;-16
2023/01/15 04:10:10;;;;;;;0.82;0.73;;;18.00;71.20;;;;;;5067838;28;20578;-13
2023/01/15 04:12:35;;;;;;;0.80;0.80;;;18.00;71.20;;;;;;5075901;28;20570;-13
2023/01/15 04:15:01;;;;;;;0.70;0.70;;;18.00;72.00;;;;;;5076182;28;20044;-14
2023/01/15 04:17:27;;;;;;;0.77;0.77;;;18.00;71.20;;;;;;5072571;28;20024;-14
2023/01/15 04:19:52;;;;;;;0.55;0.55;;;18.00;71.10;;;;;;5075975;28;20044;-13
2023/01/15 04:22:18;;;;;;;0.95;0.90;;;17.90;71.30;;;;;;5079788;28;20100;-14
2023/01/15 04:24:43;;;;;;;0.63;0.63;;;18.00;71.10;;;;;;5075458;28;20047;-14
2023/01/15 04:27:09;;;;;;;0.60;0.60;;;17.90;71.20;;;;;;5075255;28;20036;-15
2023/01/15 04:29:34;;;;;;;0.70;0.70;;;17.90;71.50;;;;;;5075070;28;20049;-13
2023/01/15 04:32:00;;;;;;;0.52;0.52;;;17.90;71.40;;;;;;5073403;28;20120;-13
2023/01/15 04:34:26;;;;;;;0.77;0.50;;;18.00;71.30;;;;;;5079368;28;20044;-16
2023/01/15 04:36:52;;;;;;;0.55;0.43;;;18.00;71.30;;;;;;5077595;28;20112;-14
2023/01/15 04:39:17;;;;;;;0.45;0.40;;;18.00;71.30;;;;;;5077061;28;20158;-15
2023/01/15 04:44:28;;;;;;;0.52;0.40;;;17.90;71.40;;;;;;5070731;28;20521;-15
2023/01/15 04:46:53;;;;;;;0.52;0.50;;;17.90;71.40;;;;;;5080396;28;20513;-14
2023/01/15 04:49:19;;;;;;;0.75;0.70;;;18.00;71.20;;;;;;5074326;28;20094;-14
2023/01/15 04:51:45;;;;;;;0.60;0.60;;;18.00;71.10;;;;;;5074239;28;20055;-13
2023/01/15 04:54:11;;;;;;;0.65;0.60;;;18.00;71.00;;;;;;5079532;28;20673;-13
2023/01/15 04:56:40;;;;;;;0.60;0.60;;;17.90;71.20;;;;;;5074533;28;20204;-14
2023/01/15 04:59:05;;;;;;;0.57;0.57;;;17.90;71.40;;;;;;5073004;28;20044;-13
2023/01/15 05:01:31;;;;;;;0.55;0.55;;;17.90;71.40;;;;;;5077716;28;20066;-14
2023/01/15 05:03:57;;;;;;;0.55;0.55;;;17.90;71.20;;;;;;5079117;28;20048;-16
2023/01/15 05:06:26;;;;;;;0.55;0.55;;;17.90;71.10;;;;;;5078414;28;20120;-13
2023/01/15 05:08:52;;;;;;;0.45;0.45;;;17.90;71.10;;;;;;5070307;28;20417;-24
2023/01/15 05:11:18;;;;;;;0.52;0.52;;;17.90;71.20;;;;;;5078516;28;20039;-13
2023/01/15 05:13:43;;;;;;;0.50;0.50;;;18.00;71.10;;;;;;5077792;28;20033;-14
2023/01/15 05:16:10;;;;;;;0.57;0.57;;;17.80;71.30;;;;;;5076397;28;20044;-15
2023/01/15 05:18:35;;;;;;;0.68;0.68;;;17.90;71.30;;;;;;5075035;28;20053;-16
2023/01/15 05:21:01;;;;;;;0.63;0.63;;;17.90;71.10;;;;;;5072711;28;20064;-14
2023/01/15 05:23:26;;;;;;;0.60;0.60;;;17.80;71.30;;;;;;5077901;28;20040;-15
2023/01/15 05:25:52;;;;;;;0.45;0.40;;;17.90;71.20;;;;;;5078350;28;20522;-15
2023/01/15 05:28:18;;;;;;;0.60;0.55;;;17.90;71.30;;;;;;5070200;28;20131;-26
2023/01/15 05:30:43;;;;;;;0.43;0.43;;;17.90;71.30;;;;;;5075723;28;20044;-25
2023/01/15 05:33:09;;;;;;;0.40;0.40;;;17.80;71.20;;;;;;5077459;28;20037;-14
2023/01/15 05:35:35;;;;;;;0.73;0.50;;;17.90;71.40;;;;;;5077405;28;20041;-22
2023/01/15 05:38:02;;;;;;;0.52;0.45;;;17.80;71.20;;;;;;5080997;28;20040;-14
2023/01/15 05:40:28;;;;;;;0.60;0.60;;;17.80;71.30;;;;;;5080955;28;20526;-15
2023/01/15 05:42:53;;;;;;;0.68;0.68;;;17.80;71.30;;;;;;5082742;28;20131;-14
2023/01/15 05:45:19;;;;;;;1.48;0.47;;;17.80;71.00;;;;;;5075323;28;20053;-15
2023/01/15 05:47:45;;;;;;;0.43;0.43;;;17.90;71.30;;;;;;5076698;28;20060;-16
2023/01/15 05:50:10;;;;;;;0.60;0.60;;;17.80;71.10;;;;;;5079801;28;20115;-15
2023/01/15 05:52:36;;;;;;;0.50;0.50;;;17.80;71.20;;;;;;5074114;28;20102;-15
2023/01/15 05:55:01;;;;;;;0.50;0.50;;;17.80;71.30;;;;;;5081731;28;20132;-26
2023/01/15 05:57:27;;;;;;;0.43;0.43;;;17.80;71.30;;;;;;5077483;28;20412;-15
2023/01/15 05:59:54;;;;;;;0.35;0.35;;;17.80;71.30;;;;;;5078711;28;20497;-17
2023/01/15 06:02:19;;;;;;;0.30;0.30;;;17.80;71.30;;;;;;5081048;28;20109;-14
2023/01/15 06:04:45;;;;;;;0.40;0.40;;;17.70;71.20;;;;;;5074042;28;20463;-15
2023/01/15 06:07:10;;;;;;;0.30;0.30;;;17.80;71.10;;;;;;5079810;28;20131;-15
2023/01/15 06:09:36;;;;;;;0.43;0.43;;;17.80;71.30;;;;;;5078314;28;20624;-14
2023/01/15 06:12:02;;;;;;;0.50;0.50;;;17.80;71.20;;;;;;5078934;28;20412;-19
2023/01/15 06:14:27;;;;;;;0.40;0.40;;;17.80;71.20;;;;;;5075644;28;20056;-14
2023/01/15 06:16:53;;;;;;;0.55;0.40;;;17.80;71.30;;;;;;5073375;28;20081;-14
2023/01/15 06:19:19;;;;;;;0.32;0.32;;;17.80;71.10;;;;;;5077992;28;20570;-17
2023/01/15 06:21:44;;;;;;;0.47;0.47;;;17.80;71.10;;;;;;5079519;28;20048;-22
2023/01/15 06:24:10;;;;;;;0.60;0.47;;;17.80;71.10;;;;;;5074138;28;20036;-23
2023/01/15 06:26:36;;;;;;;0.60;0.50;;;17.70;71.10;;;;;;5072737;28;20032;-15
2023/01/15 06:29:02;;;;;;;0.85;0.52;;;17.70;71.20;;;;;;5073213;28;20592;-17
2023/01/15 06:31:27;;;;;;;0.30;0.30;;;17.70;71.10;;;;;;5078507;28;20040;-21
2023/01/15 06:33:53;;;;;;;0.35;0.35;;;17.80;71.20;;;;;;5081000;28;20081;-16
2023/01/15 06:36:21;;;;;;;0.30;0.30;;;17.80;71.10;;;;;;5078133;28;20039;-14
2023/01/15 06:38:47;;;;;;;0.40;0.40;;;17.70;71.00;;;;;;5078263;28;20130;-14
2023/01/15 06:49:31;;;;;;;0.40;0.40;;;17.80;70.80;;;;;;5079804;28;20087;-15
2023/01/15 06:51:57;;;;;;;0.30;0.30;;;17.70;71.10;;;;;;5070917;28;20045;-14
2023/01/15 06:54:22;;;;;;;0.40;0.40;;;17.70;71.20;;;;;;5081085;28;20040;-17
2023/01/15 06:56:48;;;;;;;1.85;0.50;;;17.70;71.40;;;;;;5079100;28;20028;-14
2023/01/15 06:59:13;;;;;;;0.90;0.47;;;17.70;71.30;;;;;;5081283;28;20123;-15
2023/01/15 07:01:39;;;;;;;0.30;0.30;;;17.70;71.30;;;;;;5075049;28;20071;-17
2023/01/15 07:04:04;;;;;;;0.40;0.40;;;17.70;71.10;;;;;;5075382;28;20037;-15
2023/01/15 07:06:30;;;;;;;0.30;0.30;;;17.60;71.20;;;;;;5078868;28;21297;-17
2023/01/15 07:08:56;;;;;;;0.30;0.30;;;17.70;71.10;;;;;;5079498;28;20048;-18
2023/01/15 07:11:21;;;;;;;0.38;0.38;;;17.70;70.90;;;;;;5079033;28;20078;-15
2023/01/15 07:13:48;;;;;;;0.30;0.30;;;17.70;70.90;;;;;;5075828;28;20115;-15
2023/01/15 07:16:26;;;;;;;1.40;0.35;;;17.70;70.90;;;;;;5081650;28;20163;-15
2023/01/15 07:18:55;;;;;;;0.30;0.30;;;17.70;71.00;;;;;;5074744;28;20136;-17
2023/01/15 07:21:21;;;;;;;0.40;0.40;;;17.70;70.70;;;;;;5075925;28;20088;-16
2023/01/15 07:23:47;;;;;;;0.43;0.20;;;17.70;71.00;;;;;;5079841;28;20052;-17
2023/01/15 07:26:12;;;;;;;0.30;0.25;;;17.70;70.90;;;;;;5072374;28;20041;-14
2023/01/15 07:28:38;;;;;;;0.40;0.28;;;17.70;70.90;;;;;;5074200;28;20179;-15
2023/01/15 07:31:04;;;;;;;0.20;0.20;;;17.60;71.00;;;;;;5077157;28;20525;-16
2023/01/15 07:33:29;;;;;;;1.00;0.28;;;17.60;71.10;;;;;;5080366;28;20047;-15
2023/01/15 07:35:55;;;;;;;0.50;0.32;;;17.70;70.90;;;;;;5073924;28;20044;-16
2023/01/15 07:38:21;;;;;;;0.40;0.30;;;17.70;70.90;;;;;;5078494;28;20044;-17
2023/01/15 07:49:44;;;;;;;0.77;0.30;;;17.70;70.90;;;;;;5073114;28;20562;-17
2023/01/15 07:51:45;;;;;;;0.55;0.40;;;17.70;70.80;;;;;;5073314;28;20082;-16
2023/01/15 07:54:11;;;;;;;0.40;0.40;;;17.60;70.70;;;;;;5075513;28;20044;-15
2023/01/15 07:56:36;;;;;;;1.05;0.40;;;17.60;70.90;;;;;;5079051;28;20062;-19
2023/01/15 07:59:02;;;;;;;1.02;0.50;;;17.60;71.10;;;;;;5074782;28;20048;-21
2023/01/15 08:01:28;;;;;;;1.15;0.45;;;17.60;71.00;;;;;;5077818;28;20489;-14
2023/01/15 08:03:53;;;;;;;0.60;0.30;;;17.60;71.00;;;;;;5074109;28;20040;-15
2023/01/15 08:06:19;;;;;;;0.50;0.47;;;17.60;71.00;;;;;;5076765;28;20182;-18
2023/01/15 08:08:44;;;;;;;1.65;0.25;;;17.50;71.20;;;;;;5079925;28;22796;-15
2023/01/15 08:16:38;;;;;;;0.40;0.40;;;17.60;71.20;;;;;;5067493;28;20051;-16
2023/01/15 08:19:04;;;;;;;0.20;0.20;;;17.60;71.30;;;;;;5074989;28;20055;-16
2023/01/15 08:21:29;;;;;;;0.85;0.30;;;17.50;70.90;;;;;;5075996;28;20056;-22
2023/01/15 08:23:55;;;;;;;0.45;0.30;;;17.60;71.40;;;;;;5076470;28;20072;-15
2023/01/15 08:26:21;;;;;;;1.17;0.40;;;17.50;71.60;;;;;;5077498;28;20044;-14
2023/01/15 08:28:46;;;;;;;1.83;0.50;;;17.60;73.50;;;;;;5070580;28;20064;-16
2023/01/15 08:31:12;;;;;;;0.98;0.43;;;17.90;73.00;;;;;;5070213;28;20098;-16
2023/01/15 08:33:37;;;;;;;2.05;0.68;;;17.80;72.80;;;;;;5067517;28;20043;-14
2023/01/15 08:36:03;;;;;;;0.63;0.63;;;18.00;72.60;;;;;;5068126;28;20087;-14
2023/01/15 08:38:29;;;;;;;0.68;0.65;;;18.00;72.50;;;;;;5073641;28;20097;-23
2023/01/15 08:40:57;;;;;;;1.63;0.80;;;17.90;72.00;;;;;;5069601;28;20058;-15
2023/01/15 08:43:24;;;;;;;0.77;0.40;;;17.90;72.20;;;;;;5073007;28;20102;-15
2023/01/15 08:45:50;;;;;;;0.95;0.60;;;17.90;72.20;;;;;;5072666;28;20055;-26
2023/01/15 08:48:15;;;;;;;2.75;0.70;;;17.80;72.40;;;;;;5045035;28;20044;-14
2023/01/15 08:50:42;;;;;;;1.38;0.60;;;17.90;72.40;;;;;;5070992;28;20052;-16
2023/01/15 08:53:07;;;;;;;2.15;0.70;;;17.80;72.40;;;;;;5071334;28;20098;-14
2023/01/15 08:55:33;;;;;;;1.35;0.70;;;17.90;72.20;;;;;;5073516;28;20113;-14
2023/01/15 08:57:58;;;;;;;0.63;0.63;;;17.90;72.00;;;;;;5072768;28;20045;-15
2023/01/15 09:00:24;;;;;;;1.35;1.15;;;17.90;71.90;;;;;;5068568;28;21254;-14
2023/01/15 09:02:50;;;;;;;2.35;2.15;;;18.00;71.90;;;;;;5065903;28;20098;-16
2023/01/15 09:05:15;;;;;;;3.08;2.83;;;18.20;71.40;;;;;;5072667;28;20067;-17
2023/01/15 09:07:41;;;;;;;3.63;3.33;;;18.20;70.90;;;;;;5068981;28;20077;-17
2023/01/15 09:10:07;;;;;;;3.75;3.45;;;18.10;71.30;;;;;;5077414;28;20052;-14
2023/01/15 09:12:32;;;;;;;4.13;3.65;;;18.00;71.40;;;;;;5075309;28;20036;-16
2023/01/15 09:15:00;;;;;;;4.07;3.40;;;18.10;71.30;;;;;;5073627;28;20060;-15
2023/01/15 09:17:26;;;;;;;3.47;3.17;;;18.10;70.80;;;;;;5070068;28;20044;-17
2023/01/15 09:19:51;;;;;;;3.97;2.85;;;18.10;70.60;;;;;;5066425;28;20056;-15
2023/01/15 09:22:17;;;;;;;2.92;2.70;;;18.20;70.40;;;;;;5072728;28;20041;-15
2023/01/15 09:24:42;;;;;;;3.45;3.15;;;18.30;70.10;;;;;;5073779;28;20047;-15
2023/01/15 09:27:10;;;;;;;3.25;3.03;;;18.20;69.90;;;;;;5076918;28;20040;-17
2023/01/15 09:29:36;;;;;;;4.03;3.00;;;18.10;70.40;;;;;;5073823;28;21631;-16
2023/01/15 09:32:02;;;;;;;3.47;3.15;;;18.20;70.00;;;;;;5072365;28;20036;-16
2023/01/15 09:34:27;;;;;;;2.85;2.65;;;18.20;70.00;;;;;;5079951;28;20436;-16
2023/01/15 09:36:53;;;;;;;3.28;2.97;;;18.20;70.10;;;;;;5074306;28;20076;-15
2023/01/15 09:39:18;;;;;;;3.42;3.13;;;18.20;69.80;;;;;;5077913;28;20037;-13
2023/01/15 09:42:08;;;;;;;3.33;2.97;;;18.20;70.00;;;;;;5078622;28;20055;-14
2023/01/15 09:44:55;;;;;;;3.03;2.83;;;18.10;70.00;;;;;;5067907;28;20044;-13
2023/01/15 09:47:30;;;;;;;3.67;2.97;;;18.10;70.10;;;;;;5074030;28;20044;-16
2023/01/15 09:50:17;;;;;;;4.00;3.15;;;18.10;70.30;;;;;;5077584;28;20052;-14
2023/01/15 09:52:49;;;;;;;3.47;2.90;;;18.10;70.20;;;;;;5073642;28;20162;-14
2023/01/15 09:55:34;;;;;;;3.40;3.20;;;18.10;70.50;;;;;;5073568;28;20048;-15
2023/01/15 09:58:01;;;;;;;;;;;18.00;70.70;;;;;;5040081;28;20417;-20
2023/01/15 10:00:28;;;;;;;3.35;3.00;;;18.10;70.60;;;;;;5057466;28;19927;-14
2023/01/15 10:03:06;;;;;;;3.15;2.85;;;18.20;70.30;;;;;;5054261;28;20246;-15
2023/01/15 10:05:43;;;;;;;3.10;2.78;;;18.30;69.80;;;;;;5052367;28;20040;-14
2023/01/15 10:08:16;;;;;;;3.10;2.80;;;18.30;70.00;;;;;;5073976;28;20080;-14
2023/01/15 10:10:54;;;;;;;2.10;2.00;;;18.30;70.00;;;;;;5073923;28;20040;-13
2023/01/15 10:14:13;;;;;;;2.10;2.00;;;18.30;70.10;;;;;;5073292;28;20036;-14
2023/01/15 10:16:38;;;;;;;2.35;2.15;;;18.40;70.10;;;;;;5008031;28;20447;-15
2023/01/15 10:19:04;;;;;;;2.92;2.60;;;18.40;69.80;;;;;;5008884;28;20148;-15
2023/01/15 10:21:41;;;;;;;3.35;2.08;;;18.50;69.60;;;;;;5005799;28;20096;-24
2023/01/15 10:24:21;;;;;;;1.90;1.80;;;18.50;69.80;;;;;;4992204;28;20128;-13
2023/01/15 10:26:56;;;;;;;2.15;1.98;;;18.40;69.70;;;;;;4995966;28;20049;-13
2023/01/15 10:29:48;;;;;;;2.20;2.00;;;18.50;69.90;;;;;;4993263;28;20087;-14
2023/01/15 10:32:37;;;;;;;2.25;2.15;;;18.50;70.00;;;;;;5021871;28;20592;-14
2023/01/15 10:35:08;;;;;;;1.73;1.63;;;18.50;70.20;;;;;;5000077;28;20053;-16
2023/01/15 10:37:47;;;;;;;1.95;1.85;;;18.50;70.20;;;;;;5026810;28;20037;-14
2023/01/15 10:40:27;;;;;;;2.90;1.70;;;18.50;70.50;;;;;;4987546;28;20500;-15
2023/01/15 10:43:11;;;;;;;2.20;1.92;;;18.50;71.50;;;;;;5009197;28;20037;-17
2023/01/15 10:46:02;;;;;;;3.47;1.95;;;18.50;72.50;;;;;;5022198;28;20042;-15
2023/01/15 10:48:55;;;;;;;2.75;1.50;;;18.50;72.70;;;;;;5013362;28;20486;-14
2023/01/15 10:51:35;;;;;;;1.88;1.77;;;18.60;72.10;;;;;;5057768;28;20064;-14
2023/01/15 10:54:23;;;;;;;2.92;1.88;;;18.60;72.30;;;;;;5080205;28;20051;-14
2023/01/15 10:57:11;;;;;;;2.67;2.22;;;18.50;72.60;;;;;;5070804;28;20028;-16
2023/01/15 11:00:02;;;;;;;3.03;2.22;;;18.60;73.40;;;;;;5043418;28;20064;-17
2023/01/15 11:02:44;;;;;;;2.35;2.15;;;18.60;72.90;;;;;;5072293;28;20036;-16
2023/01/15 11:05:18;;;;;;;2.65;2.45;;;18.60;72.90;;;;;;5067256;28;20079;-15
2023/01/15 11:07:49;;;;;;;73.45;41.42;;;18.60;73.00;;;;;;5074974;28;20404;-17
2023/01/15 11:10:17;;;;;;;84.28;48.75;;;18.60;72.70;;;;;;5069085;28;20513;-14
2023/01/15 11:21:18;;;;;;;82.22;45.53;;;18.70;73.40;;;;;;5057292;28;20047;-18
2023/01/15 11:23:43;;;;;;;80.80;44.65;;;18.70;73.70;;;;;;5074909;28;20036;-15
2023/01/15 11:26:09;;;;;;;79.05;45.60;;;18.70;73.80;;;;;;5059709;28;20098;-15
2023/01/15 11:28:45;;;;;;;78.38;45.05;;;18.80;73.70;;;;;;5059486;28;20041;-15
2023/01/15 11:31:11;;;;;;;76.18;43.25;;;18.70;74.00;;;;;;5055183;28;20056;-15
2023/01/15 11:33:37;;;;;;;76.88;44.75;;;18.70;73.70;;;;;;5066500;28;20055;-18
2023/01/15 11:36:07;;;;;;;71.38;42.30;;;18.80;74.00;;;;;;5069085;28;20052;-15
2023/01/15 11:39:02;;;;;;;73.13;40.45;;;18.90;74.40;;;;;;5069053;28;20043;-15
2023/01/15 11:52:49;;;;;;;66.78;38.95;;;18.90;73.10;;;;;;5077687;28;20093;-15
2023/01/15 11:55:18;;;;;;;71.93;39.17;;;18.90;73.10;;;;;;5073199;28;20041;-16
2023/01/15 11:57:44;;;;;;;72.35;40.35;;;18.90;73.10;;;;;;5074072;28;20048;-22
2023/01/15 12:00:29;;;;;;;72.47;40.10;;;18.90;72.90;;;;;;5077592;28;20536;-16
2023/01/15 12:03:10;;;;;;;78.05;40.30;;;18.90;72.90;;;;;;5054071;28;20048;-18
2023/01/15 12:05:36;;;;;;;72.15;39.50;;;18.90;73.00;;;;;;5059072;28;20394;-16
2023/01/15 12:08:03;;;;;;;68.95;38.58;;;18.80;73.30;;;;;;5071274;28;20059;-15
2023/01/15 12:11:04;;;;;;;82.30;41.30;;;18.90;73.40;;;;;;5057178;28;20390;-17
2023/01/15 12:13:33;;;;;;;68.40;38.67;;;18.90;73.50;;;;;;4968905;28;20041;-15
2023/01/15 12:16:11;;;;;;;67.40;35.83;;;18.90;73.50;;;;;;4984896;28;20050;-14
2023/01/15 12:18:52;;;;;;;60.42;35.88;;;18.90;73.50;;;;;;4987184;28;20046;-16
2023/01/15 12:21:24;;;;;;;60.50;34.55;;;18.90;73.40;;;;;;4985363;28;20065;-19
2023/01/15 12:24:04;;;;;;;64.35;34.30;;;19.00;73.50;;;;;;4984304;28;20053;-15
2023/01/15 12:26:31;;;;;;;64.13;34.10;;;18.90;73.80;;;;;;4983183;28;20100;-15
2023/01/15 12:29:12;;;;;;;56.30;32.80;;;18.90;73.60;;;;;;4965628;28;20078;-22
2023/01/15 12:31:55;;;;;;;57.65;31.42;;;18.90;73.60;;;;;;4968048;28;20099;-16
2023/01/15 12:34:26;;;;;;;55.42;31.50;;;18.90;73.60;;;;;;4982980;28;20038;-14
2023/01/15 12:37:15;;;;;;;54.80;30.67;;;18.90;73.50;;;;;;4969405;28;20056;-17
2023/01/15 12:40:14;;;;;;;50.60;30.63;;;19.00;74.10;;;;;;4970043;28;20058;-17
2023/01/15 12:45:40;;;;;;;55.28;29.45;;;18.90;73.20;;;;;;4953709;28;20060;-16
2023/01/15 12:48:22;;;;;;;52.90;28.45;;;19.00;73.20;;;;;;4998757;28;20056;-17
2023/01/15 12:50:55;;;;;;;50.13;27.85;;;19.00;73.20;;;;;;5070093;28;20050;-23
2023/01/15 12:53:41;;;;;;;48.17;28.58;;;19.00;73.20;;;;;;5047772;28;20041;-26
2023/01/15 12:56:17;;;;;;;43.30;25.65;;;19.00;74.00;;;;;;5045530;28;20071;-16
2023/01/15 12:58:47;;;;;;;49.92;26.02;;;19.00;73.20;;;;;;5066403;28;20051;-14
2023/01/15 13:01:21;;;;;;;46.13;25.77;;;19.10;73.10;;;;;;5046837;28;20098;-14
2023/01/15 13:04:26;;;;;;;43.00;25.25;;;19.10;72.70;;;;;;5072091;28;20037;-12
2023/01/15 13:07:30;;;;;;;44.17;24.92;;;19.20;72.60;;;;;;5045118;28;20044;-11
2023/01/15 13:10:06;;;;;;;38.95;22.67;;;19.10;72.40;;;;;;5042316;28;20049;-11
2023/01/15 13:12:32;;;;;;;37.97;24.05;;;19.20;72.40;;;;;;5069483;28;20053;-11
2023/01/15 13:14:57;;;;;;;36.58;23.20;;;19.20;72.30;;;;;;5071235;28;20424;-11
2023/01/15 13:17:37;;;;;;;39.78;22.27;;;19.20;72.20;;;;;;5069837;28;20481;-11
2023/01/15 13:20:31;;;;;;;38.72;22.05;;;19.20;72.00;;;;;;5072168;28;21586;-11
2023/01/15 13:23:15;;;;;;;34.15;22.20;;;19.30;71.70;;;;;;5049642;28;20040;-11
2023/01/15 13:25:54;;;;;;;38.53;23.40;;;19.20;71.80;;;;;;5065050;28;20527;-12
2023/01/15 13:28:38;;;;;;;35.63;21.08;;;19.20;71.70;;;;;;5046058;28;20045;-11
2023/01/15 13:31:28;;;;;;;37.38;21.38;;;19.20;71.60;;;;;;5059200;28;20076;-12
2023/01/15 13:33:54;;;;;;;35.35;20.35;;;19.30;71.40;;;;;;5052634;28;20039;-12
2023/01/15 13:36:32;;;;;;;33.78;19.42;;;19.30;71.20;;;;;;5078351;28;20501;-12
2023/01/15 13:38:59;;;;;;;31.88;19.08;;;19.30;70.70;;;;;;5075950;28;20067;-12
2023/01/15 13:44:22;;;;;;;30.77;19.40;;;19.20;70.30;;;;;;5034107;28;20045;-12
2023/01/15 13:46:59;;;;;;;30.80;18.15;;;19.20;70.30;;;;;;5050182;28;20071;-12
2023/01/15 13:49:35;;;;;;;29.05;18.48;;;19.20;70.30;;;;;;5074179;28;20045;-12
2023/01/15 13:52:03;;;;;;;27.35;16.25;;;19.20;70.30;;;;;;5051091;28;20040;-12
2023/01/15 13:54:29;;;;;;;27.77;17.55;;;19.20;70.20;;;;;;5069742;28;20091;-12
2023/01/15 13:57:09;;;;;;;25.38;17.33;;;19.20;70.20;;;;;;5052176;28;20109;-12